createdAt,value
2022-08-05T00:00:55.516Z,28.76
2022-08-05T00:06:29.343Z,28.72
2022-08-05T00:11:34.756Z,28.66
2022-08-05T00:16:53.224Z,28.65
2022-08-05T00:21:57.830Z,28.60
2022-08-05T00:27:01.087Z,28.54
2022-08-05T00:32:12.220Z,28.50
2022-08-05T00:37:18.544Z,28.46
2022-08-05T00:42:31.787Z,28.40
2022-08-05T00:47:57.150Z,28.39
2022-08-05T00:52:59.070Z,28.33
2022-08-05T00:58:01.803Z,28.30
2022-08-05T01:03:08.263Z,28.27
2022-08-05T01:08:40.996Z,28.23
2022-08-05T01:13:58.264Z,28.20
2022-08-05T01:19:07.727Z,28.14
2022-08-05T01:24:24.994Z,28.12
2022-08-05T01:29:37.951Z,28.08
2022-08-05T01:34:49.377Z,28.06
2022-08-05T01:39:54.818Z,28.02
2022-08-05T01:45:04.216Z,28.00
2022-08-05T01:50:14.285Z,27.96
2022-08-05T01:55:20.732Z,27.93
2022-08-05T02:00:30.489Z,27.87
2022-08-05T02:05:36.619Z,27.87
2022-08-05T02:10:43.122Z,27.81
2022-08-05T02:15:51.713Z,27.81
2022-08-05T02:20:58.728Z,27.80
2022-08-05T02:26:04.175Z,27.77
2022-08-05T02:31:14.846Z,27.75
2022-08-05T02:36:19.636Z,27.71
2022-08-05T02:41:28.785Z,27.70
2022-08-05T02:46:58.954Z,27.66
2022-08-05T02:52:04.860Z,27.62
2022-08-05T02:57:10.476Z,27.60
2022-08-05T03:02:36.366Z,27.58
2022-08-05T03:08:00.486Z,27.55
2022-08-05T03:18:06.234Z,27.48
2022-08-05T03:23:11.278Z,27.44
2022-08-05T03:28:18.676Z,27.41
2022-08-05T03:33:23.913Z,27.37
2022-08-05T03:38:53.317Z,27.28
2022-08-05T03:44:08.633Z,27.26
2022-08-05T03:49:15.536Z,27.26
2022-08-05T03:55:51.628Z,27.20
2022-08-05T03:59:54.677Z,27.18
2022-08-05T04:05:00.211Z,27.14
2022-08-05T04:10:03.402Z,27.10
2022-08-05T04:15:06.968Z,27.09
2022-08-05T04:20:20.508Z,27.05
2022-08-05T04:25:57.460Z,27.03
2022-08-05T04:30:49.570Z,26.98
2022-08-05T04:36:15.667Z,26.97
2022-08-05T04:41:16.685Z,26.95
2022-08-05T04:46:28.328Z,26.93
2022-08-05T04:51:32.670Z,26.91
2022-08-05T04:56:37.573Z,26.87
2022-08-05T05:02:07.398Z,26.84
2022-08-05T05:07:04.453Z,26.83
2022-08-05T05:12:12.266Z,26.80
2022-08-05T05:17:15.728Z,26.77
2022-08-05T05:22:26.797Z,26.77
2022-08-05T05:27:41.178Z,26.74
2022-08-05T05:32:46.832Z,26.73
2022-08-05T05:37:59.914Z,26.73
2022-08-05T05:43:04.255Z,26.72
2022-08-05T05:48:11.393Z,26.71
2022-08-05T05:53:21.117Z,26.69
2022-08-05T05:58:30.263Z,26.69
2022-08-05T06:03:53.659Z,26.70
2022-08-05T06:08:59.201Z,26.69
2022-08-05T06:14:02.740Z,26.69
2022-08-05T06:19:07.528Z,26.68
2022-08-05T06:24:12.786Z,26.69
2022-08-05T06:29:26.440Z,26.68
2022-08-05T06:34:40.631Z,26.68
2022-08-05T06:39:45.611Z,26.66
2022-08-05T06:44:49.295Z,26.64
2022-08-05T06:50:02.054Z,26.62
2022-08-05T06:55:09.909Z,26.61
2022-08-05T07:00:14.011Z,26.59
2022-08-05T07:05:37.480Z,26.57
2022-08-05T07:10:52.459Z,26.55
2022-08-05T07:17:59.253Z,26.52
2022-08-05T07:21:59.204Z,26.50
2022-08-05T07:27:02.792Z,26.47
2022-08-05T07:32:06.502Z,26.46
2022-08-05T07:37:11.615Z,26.44
2022-08-05T07:42:15.895Z,26.44
2022-08-05T07:47:19.077Z,26.40
2022-08-05T07:52:29.343Z,26.39
2022-08-05T07:57:51.346Z,26.37
2022-08-05T08:03:15.233Z,26.32
2022-08-05T08:08:20.081Z,26.30
2022-08-05T08:13:29.345Z,26.27
2022-08-05T08:18:32.186Z,26.25
2022-08-05T08:24:02.529Z,26.24
2022-08-05T08:29:14.166Z,26.19
2022-08-05T08:34:30.887Z,26.15
2022-08-05T08:39:37.834Z,26.06
2022-08-05T08:45:23.751Z,26.09
2022-08-05T08:50:30.408Z,26.05
2022-08-05T08:55:32.220Z,26.02
2022-08-05T09:00:54.427Z,25.98
2022-08-05T09:06:08.589Z,25.95
2022-08-05T09:11:14.940Z,25.92
2022-08-05T09:16:19.045Z,25.88
2022-08-05T09:22:21.888Z,25.85
2022-08-05T09:26:48.051Z,25.82
2022-08-05T09:32:41.033Z,25.81
2022-08-05T09:38:16.423Z,25.79
2022-08-05T09:42:52.382Z,25.77
2022-08-05T09:47:58.012Z,25.78
2022-08-05T09:53:01.467Z,25.77
2022-08-05T09:58:11.562Z,25.77
2022-08-05T10:03:15.637Z,25.75
2022-08-05T10:08:37.716Z,25.75
2022-08-05T10:13:47.728Z,25.74
2022-08-05T10:18:52.640Z,25.72
2022-08-05T10:24:00.372Z,25.70
2022-08-05T10:29:03.879Z,25.69
2022-08-05T10:34:08.302Z,25.69
2022-08-05T10:39:15.188Z,25.68
2022-08-05T10:44:28.674Z,25.69
2022-08-05T10:49:33.630Z,25.72
2022-08-05T10:55:06.703Z,25.77
2022-08-05T11:00:19.042Z,25.81
2022-08-05T11:05:28.838Z,25.82
2022-08-05T11:10:33.217Z,25.81
2022-08-05T11:15:58.875Z,25.83
2022-08-05T11:21:11.189Z,25.78
2022-08-05T11:26:28.771Z,25.81
2022-08-05T11:31:54.413Z,25.84
2022-08-05T11:36:59.544Z,25.82
2022-08-05T11:42:04.699Z,25.86
2022-08-05T11:47:11.708Z,25.81
2022-08-05T11:52:29.176Z,25.81
2022-08-05T11:58:08.237Z,25.85
2022-08-05T12:02:56.576Z,25.73
2022-08-05T12:08:08.645Z,25.74
2022-08-05T12:13:28.152Z,25.71
2022-08-05T12:18:42.615Z,25.72
2022-08-05T12:24:00.170Z,25.72
2022-08-05T12:29:09.360Z,25.70
2022-08-05T12:34:14.675Z,25.71
2022-08-05T12:39:27.894Z,25.74
2022-08-05T12:44:37.670Z,25.74
2022-08-05T12:50:02.431Z,25.70
2022-08-05T12:55:22.139Z,25.70
2022-08-05T13:02:03.202Z,25.70
2022-08-05T13:05:50.058Z,25.69
2022-08-05T13:11:00.691Z,25.71
2022-08-05T13:16:03.394Z,25.68
2022-08-05T13:21:07.574Z,25.70
2022-08-05T13:26:11.600Z,25.70
2022-08-05T13:31:20.106Z,25.69
2022-08-05T13:36:43.537Z,25.64
2022-08-05T13:41:47.563Z,25.67
2022-08-05T13:47:04.732Z,25.69
2022-08-05T13:52:12.632Z,25.67
2022-08-05T13:57:16.754Z,25.68
2022-08-05T14:02:19.720Z,25.72
2022-08-05T14:08:00.206Z,25.69
2022-08-05T14:12:50.387Z,25.69
2022-08-05T14:17:59.443Z,25.74
2022-08-05T14:23:02.725Z,25.68
2022-08-05T14:28:06.996Z,25.67
2022-08-05T14:33:10.586Z,25.67
2022-08-05T14:38:32.485Z,25.70
2022-08-05T14:43:59.654Z,25.75
2022-08-05T14:49:06.692Z,25.74
2022-08-05T14:54:27.575Z,25.74
2022-08-05T14:59:35.435Z,25.65
2022-08-05T15:04:38.578Z,25.65
2022-08-05T15:09:52.875Z,25.63
2022-08-05T15:14:58.946Z,25.63
2022-08-05T15:20:01.628Z,25.62
2022-08-05T15:25:11.706Z,25.57
2022-08-05T15:30:18.730Z,25.67
2022-08-05T15:35:21.973Z,25.64
2022-08-05T15:41:03.465Z,25.65
2022-08-05T15:46:00.592Z,25.65
2022-08-05T15:51:05.605Z,25.70
2022-08-05T15:56:14.105Z,25.66
2022-08-05T16:01:20.013Z,25.62
2022-08-05T16:06:23.406Z,25.61
2022-08-05T16:11:42.352Z,25.63
2022-08-05T16:16:47.820Z,25.65
2022-08-05T16:22:00.028Z,25.65
2022-08-05T16:27:07.309Z,25.64
2022-08-05T16:32:11.612Z,25.65
2022-08-05T16:38:03.627Z,25.65
2022-08-05T16:42:37.269Z,25.63
2022-08-05T16:47:53.433Z,25.62
2022-08-05T16:53:00.347Z,25.58
2022-08-05T16:58:14.973Z,25.52
2022-08-05T17:03:24.201Z,25.56
2022-08-05T17:08:33.351Z,25.57
2022-08-05T17:13:46.530Z,25.49
2022-08-05T17:18:50.615Z,25.54
2022-08-05T17:24:05.228Z,25.51
2022-08-05T17:29:11.008Z,25.50
2022-08-05T17:34:17.960Z,25.47
2022-08-05T17:39:24.528Z,25.46
2022-08-05T17:44:36.303Z,25.45
2022-08-05T17:49:52.150Z,25.44
2022-08-05T17:55:03.279Z,25.41
2022-08-05T18:00:11.726Z,25.40
2022-08-05T18:05:18.459Z,25.36
2022-08-05T18:10:21.610Z,25.33
2022-08-05T18:15:27.073Z,25.32
2022-08-05T18:20:32.024Z,25.29
2022-08-05T18:25:35.044Z,25.28
2022-08-05T18:30:40.154Z,25.27
2022-08-05T18:35:59.874Z,25.25
2022-08-05T18:41:57.877Z,25.24
2022-08-05T18:46:30.140Z,25.23
2022-08-05T18:52:05.107Z,25.20
2022-08-05T18:57:15.007Z,25.03
2022-08-05T19:02:28.323Z,25.10
2022-08-05T19:07:46.003Z,25.13
2022-08-05T19:12:49.695Z,25.08
2022-08-05T19:18:08.596Z,25.05
2022-08-05T19:24:04.434Z,25.03
2022-08-05T19:28:41.503Z,24.98
2022-08-05T19:33:48.470Z,25.00
2022-08-05T19:39:01.828Z,24.95
2022-08-05T19:44:12.962Z,24.95
2022-08-05T19:49:17.812Z,24.90
2022-08-05T19:54:29.661Z,24.87
2022-08-05T20:00:00.974Z,24.85
2022-08-05T20:04:58.705Z,24.82
2022-08-05T20:10:08.260Z,24.80
2022-08-05T20:15:23.196Z,24.76
2022-08-05T20:20:39.703Z,24.74
2022-08-05T20:25:43.775Z,24.72
2022-08-05T20:30:46.480Z,24.70
2022-08-05T20:35:52.169Z,24.67
2022-08-05T20:40:58.027Z,24.65
2022-08-05T20:46:00.874Z,24.64
2022-08-05T20:51:08.264Z,24.60
2022-08-05T20:56:12.590Z,24.58
2022-08-05T21:01:15.372Z,24.56
2022-08-05T21:06:27.728Z,24.52
2022-08-05T21:12:09.931Z,24.52
2022-08-05T21:16:55.674Z,24.49
2022-08-05T21:21:58.376Z,24.45
2022-08-05T21:27:02.584Z,24.44
2022-08-05T21:32:06.498Z,24.42
2022-08-05T21:37:09.322Z,24.32
2022-08-05T21:42:30.648Z,24.36
2022-08-05T21:47:57.208Z,24.33
2022-08-05T21:53:08.366Z,24.31
2022-08-05T21:58:30.892Z,24.29
2022-08-05T22:03:52.102Z,24.24
2022-08-05T22:08:56.134Z,24.22
2022-08-05T22:14:33.774Z,24.21
2022-08-05T22:19:57.413Z,24.18
2022-08-05T22:25:03.910Z,24.14
2022-08-05T22:30:14.332Z,24.12
2022-08-05T22:35:17.078Z,24.11
2022-08-05T22:40:20.397Z,24.08
2022-08-05T22:45:26.339Z,24.02
2022-08-05T22:50:29.086Z,24.03
2022-08-05T22:55:37.273Z,24.01
2022-08-05T23:00:57.008Z,23.96
2022-08-05T23:05:59.939Z,23.95
2022-08-05T23:11:03.713Z,23.93
2022-08-05T23:16:07.749Z,23.90
2022-08-05T23:21:11.145Z,23.88
2022-08-05T23:26:19.914Z,23.85
2022-08-05T23:31:25.703Z,23.82
2022-08-05T23:36:41.415Z,23.79
2022-08-05T23:41:48.638Z,23.68
2022-08-05T23:46:53.152Z,23.73
2022-08-05T23:52:16.436Z,23.71
2022-08-05T23:57:19.344Z,23.66
